Metar z połowy godziny Komunikat METAR ze strony awiacja.imgw.pl Metar G30 EPSC METAR EPSC 200230Z 20003KT 140V230 CAVOK 17/12 Q1014 =